createdAt,value
2022-11-09T00:01:03.541Z,100006.69
2022-11-09T00:03:30.181Z,100002.94
2022-11-09T00:05:58.038Z,100002.19
2022-11-09T00:08:24.688Z,99999.63
2022-11-09T00:10:51.337Z,99997.00
2022-11-09T00:13:18.344Z,100002.28
2022-11-09T00:15:45.629Z,100005.63
2022-11-09T00:18:12.252Z,100003.03
2022-11-09T00:20:43.230Z,99999.69
2022-11-09T00:23:13.811Z,99997.94
2022-11-09T00:25:40.396Z,99992.91
2022-11-09T00:28:06.959Z,99993.59
2022-11-09T00:30:33.493Z,100001.53
2022-11-09T00:33:00.021Z,99994.53
2022-11-09T00:35:27.343Z,99990.72
2022-11-09T00:37:55.310Z,99989.16
2022-11-09T00:40:21.976Z,99990.00
2022-11-09T00:42:48.846Z,99980.53
2022-11-09T00:45:16.404Z,99978.81
2022-11-09T00:47:44.105Z,99991.06
2022-11-09T00:50:11.237Z,99984.72
2022-11-09T00:52:38.372Z,99988.97
2022-11-09T00:55:05.470Z,99995.19
2022-11-09T00:57:32.303Z,99990.81
2022-11-09T00:59:59.046Z,99990.81
2022-11-09T01:02:25.620Z,99995.78
2022-11-09T01:04:52.604Z,99991.72
2022-11-09T01:07:19.175Z,99999.34
2022-11-09T01:09:47.288Z,99998.59
2022-11-09T01:12:13.851Z,100000.13
2022-11-09T01:14:40.383Z,100002.63
2022-11-09T01:17:06.941Z,99996.47
2022-11-09T01:19:33.575Z,99999.25
2022-11-09T01:22:00.103Z,100001.03
2022-11-09T01:24:28.268Z,99995.75
2022-11-09T01:26:55.256Z,99990.69
2022-11-09T01:29:21.878Z,99987.47
2022-11-09T01:31:48.946Z,99989.66
2022-11-09T01:34:17.466Z,99987.41
2022-11-09T01:36:44.026Z,99990.69
2022-11-09T01:39:10.611Z,99990.81
2022-11-09T01:41:38.147Z,99984.72
2022-11-09T01:44:10.046Z,99981.88
2022-11-09T01:46:40.873Z,99995.31
2022-11-09T01:49:24.328Z,99997.78
2022-11-09T01:51:57.761Z,99990.72
2022-11-09T01:54:29.776Z,99995.91
2022-11-09T01:57:00.952Z,99987.13
2022-11-09T01:59:31.364Z,99980.44
2022-11-09T02:02:00.383Z,99982.22
2022-11-09T02:04:38.630Z,99989.09
2022-11-09T02:07:06.294Z,99963.84
2022-11-09T02:09:52.517Z,99981.31
2022-11-09T02:12:19.383Z,99979.63
2022-11-09T02:14:49.645Z,99971.97
2022-11-09T02:17:17.996Z,99977.19
2022-11-09T02:19:45.424Z,99973.88
2022-11-09T02:22:12.095Z,99977.22
2022-11-09T02:24:38.871Z,99971.03
2022-11-09T02:27:07.364Z,99982.47
2022-11-09T02:29:40.683Z,99973.88
2022-11-09T02:32:13.859Z,99978.91
2022-11-09T02:34:40.558Z,99967.63
2022-11-09T02:37:07.503Z,99973.88
2022-11-09T02:39:34.580Z,99972.31
2022-11-09T02:42:13.717Z,99963.59
2022-11-09T02:44:47.684Z,99956.41
2022-11-09T02:47:14.357Z,99958.13
2022-11-09T02:49:41.427Z,99956.59
2022-11-09T02:52:08.959Z,99960.78
2022-11-09T02:54:35.970Z,99965.97
2022-11-09T02:57:04.380Z,99966.00
2022-11-09T02:59:32.418Z,99969.66
2022-11-09T03:01:59.590Z,99966.03
2022-11-09T03:04:28.964Z,99966.00
2022-11-09T03:06:55.587Z,99973.00
2022-11-09T03:09:22.305Z,99966.25
2022-11-09T03:11:50.520Z,99972.00
2022-11-09T03:14:17.809Z,99971.25
2022-11-09T03:16:50.917Z,99963.56
2022-11-09T03:19:18.626Z,99971.41
2022-11-09T03:21:47.566Z,99978.50
2022-11-09T03:24:14.161Z,99969.72
2022-11-09T03:26:41.651Z,99961.94
2022-11-09T03:29:09.075Z,99964.91
2022-11-09T03:31:35.959Z,99972.59
2022-11-09T03:34:05.664Z,99967.25
2022-11-09T03:36:35.083Z,99970.03
2022-11-09T03:39:01.687Z,99977.91
2022-11-09T03:41:28.330Z,99977.03
2022-11-09T03:43:54.926Z,99976.91
2022-11-09T03:46:21.475Z,99981.38
2022-11-09T03:48:48.176Z,99975.28
2022-11-09T03:51:14.697Z,99988.28
2022-11-09T03:53:41.259Z,99980.69
2022-11-09T03:56:07.972Z,99976.03
2022-11-09T03:58:34.491Z,99980.59
2022-11-09T04:01:01.102Z,99987.63
2022-11-09T04:03:27.658Z,99987.50
2022-11-09T04:05:54.178Z,99975.31
2022-11-09T04:08:20.752Z,99986.50
2022-11-09T04:10:47.315Z,99991.06
2022-11-09T04:13:13.795Z,99992.03
2022-11-09T04:15:40.352Z,99988.25
2022-11-09T04:18:06.845Z,99977.94
2022-11-09T04:20:33.541Z,99993.50
2022-11-09T04:23:02.906Z,99996.28
2022-11-09T04:25:33.315Z,99997.09
2022-11-09T04:28:01.377Z,99997.19
2022-11-09T04:30:29.817Z,99999.03
2022-11-09T04:32:57.426Z,100009.50
2022-11-09T04:35:25.456Z,100000.69
2022-11-09T04:37:58.976Z,100001.56
2022-11-09T04:40:27.584Z,100006.03
2022-11-09T04:42:54.583Z,99998.88
2022-11-09T04:45:21.887Z,100009.53
2022-11-09T04:47:48.605Z,100004.03
2022-11-09T04:50:15.623Z,100010.09
2022-11-09T04:52:42.187Z,100014.59
2022-11-09T04:55:09.244Z,100015.50
2022-11-09T04:57:35.839Z,100019.84
2022-11-09T05:00:03.029Z,100025.09
2022-11-09T05:02:29.581Z,100021.47
2022-11-09T05:04:56.109Z,100008.31
2022-11-09T05:07:22.652Z,100009.38
2022-11-09T05:09:49.348Z,100015.31
2022-11-09T05:12:16.182Z,100013.69
2022-11-09T05:14:42.673Z,99998.00
2022-11-09T05:17:09.296Z,99999.63
2022-11-09T05:19:35.881Z,100006.63
2022-11-09T05:22:22.436Z,100009.94
2022-11-09T05:24:51.615Z,100006.63
2022-11-09T05:27:18.211Z,99997.13
2022-11-09T05:29:44.732Z,100008.34
2022-11-09T05:32:11.344Z,100001.47
2022-11-09T05:34:37.921Z,100005.84
2022-11-09T05:37:04.429Z,100004.78
2022-11-09T05:39:31.006Z,100014.41
2022-11-09T05:41:57.678Z,100021.41
2022-11-09T05:44:24.366Z,100018.78
2022-11-09T05:46:50.916Z,100015.44
2022-11-09T05:49:17.573Z,100010.16
2022-11-09T05:51:44.109Z,100023.81
2022-11-09T05:54:10.723Z,100016.72
2022-11-09T05:56:37.259Z,100009.88
2022-11-09T05:59:03.800Z,100007.25
2022-11-09T06:01:30.311Z,100022.31
2022-11-09T06:03:56.899Z,100023.25
2022-11-09T06:06:23.474Z,100012.78
2022-11-09T06:08:50.736Z,100013.50
2022-11-09T06:11:23.581Z,100023.09
2022-11-09T06:13:51.963Z,100021.38
2022-11-09T06:16:18.588Z,100020.47
2022-11-09T06:18:45.130Z,100025.56
2022-11-09T06:21:11.948Z,100028.22
2022-11-09T06:23:38.601Z,100035.22
2022-11-09T06:26:07.719Z,100042.19
2022-11-09T06:28:34.747Z,100043.09
2022-11-09T06:31:02.960Z,100046.56
2022-11-09T06:33:34.273Z,100051.69
2022-11-09T06:36:01.863Z,100050.00
2022-11-09T06:38:28.619Z,100045.69
2022-11-09T06:40:57.518Z,100058.88
2022-11-09T06:43:24.906Z,100064.16
2022-11-09T06:45:52.464Z,100053.88
2022-11-09T06:48:19.374Z,100066.03
2022-11-09T06:50:46.163Z,100074.03
2022-11-09T06:53:14.650Z,100072.19
2022-11-09T06:55:47.174Z,100077.31
2022-11-09T06:58:16.863Z,100081.84
2022-11-09T07:00:44.614Z,100082.59
2022-11-09T07:03:15.122Z,100069.31
2022-11-09T07:05:42.024Z,100079.28
2022-11-09T07:08:08.689Z,100080.75
2022-11-09T07:10:35.362Z,100084.28
2022-11-09T07:13:03.238Z,100073.97
2022-11-09T07:15:30.275Z,100085.16
2022-11-09T07:17:58.920Z,100083.63
2022-11-09T07:20:26.307Z,100081.81
2022-11-09T07:22:52.938Z,100070.53
2022-11-09T07:25:19.921Z,100074.78
2022-11-09T07:27:46.739Z,100054.91
2022-11-09T07:30:13.893Z,100065.28
2022-11-09T07:33:07.599Z,100069.75
2022-11-09T07:35:27.551Z,100076.81
2022-11-09T07:37:54.228Z,100064.50
2022-11-09T07:40:20.816Z,100076.84
2022-11-09T07:42:47.341Z,100074.25
2022-11-09T07:45:14.073Z,100080.31
2022-11-09T07:47:40.610Z,100084.56
2022-11-09T07:50:07.543Z,100086.50
2022-11-09T07:52:34.129Z,100100.25
2022-11-09T07:55:00.775Z,100102.03
2022-11-09T07:57:27.307Z,100098.53
2022-11-09T07:59:54.041Z,100094.13
2022-11-09T08:02:20.647Z,100101.13
2022-11-09T08:04:47.377Z,100092.69
2022-11-09T08:07:14.626Z,100093.53
2022-11-09T08:09:41.328Z,100085.88
2022-11-09T08:12:07.898Z,100105.56
2022-11-09T08:14:34.483Z,100113.56
2022-11-09T08:17:01.105Z,100106.53
2022-11-09T08:19:27.728Z,100120.34
2022-11-09T08:21:57.364Z,100109.81
2022-11-09T08:24:24.402Z,100122.94
2022-11-09T08:26:50.994Z,100127.44
2022-11-09T08:29:17.536Z,100129.16
2022-11-09T08:31:44.250Z,100114.34
2022-11-09T08:34:13.901Z,100123.06
2022-11-09T08:36:40.514Z,100107.28
2022-11-09T08:39:07.127Z,100117.69
2022-11-09T08:41:33.896Z,100117.66
2022-11-09T08:44:00.609Z,100119.59
2022-11-09T08:46:27.179Z,100137.00
2022-11-09T08:48:53.783Z,100124.81
2022-11-09T08:51:20.453Z,100122.22
2022-11-09T08:53:47.010Z,100132.66
2022-11-09T08:56:18.315Z,100111.84
2022-11-09T08:58:46.047Z,100137.25
2022-11-09T09:01:16.918Z,100148.22
2022-11-09T09:03:44.516Z,100157.97
2022-11-09T09:06:11.145Z,100141.25
2022-11-09T09:08:37.984Z,100148.34
2022-11-09T09:11:05.624Z,100144.72
2022-11-09T09:13:32.780Z,100152.28
2022-11-09T09:16:13.141Z,100138.59
2022-11-09T09:18:39.820Z,100132.44
2022-11-09T09:21:09.380Z,100128.97
2022-11-09T09:23:35.942Z,100159.41
2022-11-09T09:26:02.550Z,100147.34
2022-11-09T09:28:29.312Z,100148.03
2022-11-09T09:31:01.297Z,100163.63
2022-11-09T09:33:28.550Z,100147.16
2022-11-09T09:35:57.984Z,100139.38
2022-11-09T09:38:26.111Z,100149.72
2022-11-09T09:40:52.692Z,100168.69
2022-11-09T09:43:30.008Z,100158.19
2022-11-09T09:45:59.285Z,100134.84
2022-11-09T09:48:53.522Z,100158.06
2022-11-09T09:51:38.334Z,100162.44
2022-11-09T09:54:19.965Z,100169.31
2022-11-09T09:56:49.727Z,100159.53
2022-11-09T09:59:26.942Z,100169.13
2022-11-09T10:01:53.649Z,100167.06
2022-11-09T10:04:23.690Z,100172.41
2022-11-09T10:07:02.198Z,100170.50
2022-11-09T10:09:58.171Z,100177.72
2022-11-09T10:13:09.782Z,100169.59
2022-11-09T10:15:54.198Z,100169.84
2022-11-09T10:18:29.571Z,100175.81
2022-11-09T10:21:19.978Z,100163.56
2022-11-09T10:24:11.722Z,100164.47
2022-11-09T10:26:47.175Z,100167.22
2022-11-09T10:29:35.655Z,100178.81
2022-11-09T10:32:23.295Z,100166.41
2022-11-09T10:34:56.508Z,100160.06
2022-11-09T10:37:27.551Z,100158.19
2022-11-09T10:40:24.256Z,100173.25
2022-11-09T10:43:23.734Z,100162.06
2022-11-09T10:46:09.196Z,100162.66
2022-11-09T10:48:55.623Z,100171.50
2022-11-09T10:51:42.768Z,100174.25
2022-11-09T10:54:32.417Z,100161.00
2022-11-09T10:57:18.870Z,100171.16
2022-11-09T11:00:05.446Z,100158.25
2022-11-09T11:02:52.066Z,100155.25
2022-11-09T11:05:38.920Z,100170.38
2022-11-09T11:08:29.776Z,100159.28
2022-11-09T11:11:33.669Z,100161.28
2022-11-09T11:14:33.268Z,100176.13
2022-11-09T11:17:26.376Z,100176.75
2022-11-09T11:20:30.701Z,100166.94
2022-11-09T11:23:22.442Z,100155.53
2022-11-09T11:26:23.160Z,100180.72
2022-11-09T11:29:48.722Z,100174.16
2022-11-09T11:32:34.096Z,100177.13
2022-11-09T11:35:38.647Z,100167.47
2022-11-09T11:38:37.969Z,100177.25
2022-11-09T11:42:01.534Z,100168.97
2022-11-09T11:45:12.761Z,100175.03
2022-11-09T11:48:15.663Z,100180.00
2022-11-09T11:51:32.102Z,100176.19
2022-11-09T11:54:37.291Z,100172.84
2022-11-09T11:57:41.420Z,100177.97
2022-11-09T12:00:26.845Z,100182.34
2022-11-09T12:03:31.461Z,100185.47
2022-11-09T12:06:22.084Z,100176.50
2022-11-09T12:09:16.360Z,100182.56
2022-11-09T12:12:34.562Z,100182.50
2022-11-09T12:16:03.165Z,100180.41
2022-11-09T12:19:00.208Z,100183.28
2022-11-09T12:21:55.507Z,100170.28
2022-11-09T12:24:54.228Z,100178.34
2022-11-09T12:27:57.495Z,100175.84
2022-11-09T12:31:14.199Z,100176.66
2022-11-09T12:34:18.143Z,100191.09
2022-11-09T12:37:09.854Z,100188.66
2022-11-09T12:40:00.238Z,100189.00
2022-11-09T12:42:56.648Z,100191.78
2022-11-09T12:45:43.661Z,100199.38
2022-11-09T12:48:31.693Z,100193.63
2022-11-09T12:51:18.706Z,100199.06
2022-11-09T12:54:11.218Z,100199.91
2022-11-09T12:57:03.806Z,100198.25
2022-11-09T12:59:54.614Z,100200.63
2022-11-09T13:02:54.827Z,100192.88
2022-11-09T13:05:40.333Z,100202.78
2022-11-09T13:08:31.576Z,100212.56
2022-11-09T13:11:39.865Z,100199.06
2022-11-09T13:14:31.602Z,100199.81
2022-11-09T13:17:25.861Z,100191.09
2022-11-09T13:26:46.786Z,100213.66
2022-11-09T13:29:40.946Z,100217.84
2022-11-09T13:32:33.223Z,100217.59
2022-11-09T13:35:40.206Z,100222.50
2022-11-09T13:38:28.547Z,100226.31
2022-11-09T13:41:32.221Z,100224.72
2022-11-09T13:44:20.530Z,100230.03
2022-11-09T13:47:05.660Z,100231.59
2022-11-09T13:49:52.027Z,100232.44
2022-11-09T13:52:43.899Z,100220.19
2022-11-09T13:55:40.400Z,100234.09
2022-11-09T13:58:29.846Z,100247.53
2022-11-09T14:01:27.048Z,100248.25
2022-11-09T14:04:24.587Z,100243.00
2022-11-09T14:07:24.014Z,100233.50
2022-11-09T14:10:42.300Z,100244.75
2022-11-09T14:14:01.932Z,100248.06
2022-11-09T14:17:16.781Z,100257.22
2022-11-09T14:20:12.200Z,100257.28
2022-11-09T14:22:57.517Z,100252.06
2022-11-09T14:25:43.070Z,100252.66
2022-11-09T14:28:32.711Z,100254.00
2022-11-09T14:31:27.477Z,100248.19
2022-11-09T14:34:16.569Z,100258.16
2022-11-09T14:37:05.821Z,100252.78
2022-11-09T14:39:52.457Z,100258.25
2022-11-09T14:42:40.834Z,100262.03
2022-11-09T14:45:30.283Z,100261.38
2022-11-09T14:48:20.793Z,100274.47
2022-11-09T14:51:12.102Z,100264.94
2022-11-09T14:53:58.679Z,100263.16
2022-11-09T14:56:44.839Z,100277.22
2022-11-09T14:59:36.049Z,100266.03
2022-11-09T15:02:23.122Z,100271.88
2022-11-09T15:05:29.906Z,100279.69
2022-11-09T15:08:22.737Z,100279.03
2022-11-09T15:11:08.557Z,100279.88
2022-11-09T15:13:54.037Z,100283.56
2022-11-09T15:16:40.533Z,100286.91
2022-11-09T15:19:30.588Z,100293.16
2022-11-09T15:22:46.723Z,100294.88
2022-11-09T15:25:41.161Z,100293.88
2022-11-09T15:28:29.545Z,100294.84
2022-11-09T15:31:18.715Z,100294.88
2022-11-09T15:34:22.017Z,100302.66
2022-11-09T15:37:29.515Z,100302.50
2022-11-09T15:40:17.692Z,100309.78
2022-11-09T15:43:02.665Z,100310.78
2022-11-09T15:45:47.828Z,100322.13
2022-11-09T15:48:33.712Z,100313.41
2022-11-09T15:51:19.622Z,100314.44
2022-11-09T15:54:05.096Z,100319.84
2022-11-09T15:56:51.304Z,100326.78
2022-11-09T15:59:36.618Z,100322.59
2022-11-09T16:02:22.009Z,100337.28
2022-11-09T16:05:07.879Z,100353.03
2022-11-09T16:07:54.915Z,100350.53
2022-11-09T16:10:41.277Z,100353.22
2022-11-09T16:13:26.314Z,100356.69
2022-11-09T16:16:14.136Z,100354.09
2022-11-09T16:18:59.421Z,100356.72
2022-11-09T16:21:44.638Z,100354.06
2022-11-09T16:24:30.077Z,100360.19
2022-11-09T16:27:35.378Z,100364.66
2022-11-09T16:30:20.555Z,100368.94
2022-11-09T16:33:05.577Z,100375.19
2022-11-09T16:35:50.856Z,100374.31
2022-11-09T16:38:41.958Z,100384.72
2022-11-09T16:41:27.456Z,100389.13
2022-11-09T16:44:14.332Z,100392.47
2022-11-09T16:47:03.076Z,100397.00
2022-11-09T16:49:48.366Z,100393.56
2022-11-09T16:52:33.578Z,100404.91
2022-11-09T16:55:18.766Z,100408.41
2022-11-09T16:58:04.133Z,100413.66
2022-11-09T17:03:57.537Z,100419.78
2022-11-09T17:06:42.623Z,100423.34
2022-11-09T17:09:27.887Z,100419.00
2022-11-09T17:12:14.253Z,100425.06
2022-11-09T17:14:59.355Z,100432.91
2022-11-09T17:17:44.670Z,100435.53
2022-11-09T17:20:29.915Z,100436.41
2022-11-09T17:23:18.430Z,100445.88
2022-11-09T17:26:06.522Z,100446.84
2022-11-09T17:28:51.832Z,100442.53
2022-11-09T17:31:38.083Z,100452.09
2022-11-09T17:34:23.489Z,100452.91
2022-11-09T17:37:09.024Z,100456.41
2022-11-09T17:39:54.256Z,100452.94
2022-11-09T17:42:39.980Z,100464.34
2022-11-09T17:45:25.919Z,100470.41
2022-11-09T17:48:11.139Z,100473.88
2022-11-09T17:50:57.616Z,100473.88
2022-11-09T17:53:43.513Z,100477.44
2022-11-09T17:56:29.003Z,100476.53
2022-11-09T17:59:14.553Z,100480.03
2022-11-09T18:01:59.741Z,100487.00
2022-11-09T18:04:44.909Z,100492.22
2022-11-09T18:07:31.053Z,100494.84
2022-11-09T18:10:16.208Z,100500.09
2022-11-09T18:13:01.780Z,100503.56
2022-11-09T18:15:46.828Z,100496.59
2022-11-09T18:18:32.305Z,100496.63
2022-11-09T18:21:19.568Z,100494.88
2022-11-09T18:24:05.356Z,100496.59
2022-11-09T18:26:50.474Z,100510.53
2022-11-09T18:29:36.055Z,100514.88
2022-11-09T18:32:21.262Z,100534.91
2022-11-09T18:35:07.608Z,100520.09
2022-11-09T18:37:52.914Z,100525.34
2022-11-09T18:40:38.236Z,100535.78
2022-11-09T18:43:23.676Z,100534.03
2022-11-09T18:46:11.841Z,100533.19
2022-11-09T18:48:56.930Z,100545.38
2022-11-09T18:51:43.968Z,100546.22
2022-11-09T18:54:29.626Z,100554.94
2022-11-09T18:57:19.668Z,100556.69
2022-11-09T19:00:06.312Z,100538.38
2022-11-09T19:02:51.592Z,100548.81
2022-11-09T19:05:39.946Z,100570.59
2022-11-09T19:08:44.047Z,100568.88
2022-11-09T19:11:30.157Z,100568.88
2022-11-09T19:14:15.591Z,100574.06
2022-11-09T19:17:01.021Z,100585.38
2022-11-09T19:19:46.257Z,100583.63
2022-11-09T19:22:31.928Z,100586.25
2022-11-09T19:25:17.039Z,100594.94
2022-11-09T19:28:02.306Z,100592.25
2022-11-09T19:30:47.693Z,100604.47
2022-11-09T19:33:32.823Z,100610.50
2022-11-09T19:36:34.608Z,100606.25
2022-11-09T19:39:20.175Z,100607.94
2022-11-09T19:42:05.970Z,100620.13
2022-11-09T19:44:56.263Z,100624.47
2022-11-09T19:47:42.306Z,100628.81
2022-11-09T19:50:27.430Z,100614.09
2022-11-09T19:53:12.779Z,100620.13
2022-11-09T19:56:04.376Z,100617.56
2022-11-09T19:58:55.406Z,100644.53
2022-11-09T20:01:40.663Z,100634.13
2022-11-09T20:04:25.885Z,100643.66
2022-11-09T20:07:11.357Z,100648.06
2022-11-09T20:09:56.589Z,100665.44
2022-11-09T20:12:50.682Z,100672.41
2022-11-09T20:15:36.428Z,100677.53
2022-11-09T20:18:23.753Z,100684.56
2022-11-09T20:21:09.051Z,100680.28
2022-11-09T20:23:54.577Z,100682.88
2022-11-09T20:26:40.760Z,100687.16
2022-11-09T20:29:26.229Z,100707.16
2022-11-09T20:32:12.423Z,100710.69
2022-11-09T20:34:58.196Z,100706.19
2022-11-09T20:37:43.349Z,100702.78
2022-11-09T20:40:29.012Z,100721.09
2022-11-09T20:43:14.174Z,100727.13
2022-11-09T20:46:07.161Z,100734.16
2022-11-09T20:48:54.581Z,100734.97
2022-11-09T20:51:40.766Z,100734.03
2022-11-09T20:54:26.495Z,100744.53
2022-11-09T20:57:12.034Z,100742.75
2022-11-09T20:59:56.915Z,100739.28
2022-11-09T21:02:43.129Z,100748.94
2022-11-09T21:05:28.156Z,100754.16
2022-11-09T21:08:13.541Z,100759.41
2022-11-09T21:11:03.889Z,100760.19
2022-11-09T21:13:55.988Z,100753.16
2022-11-09T21:16:40.950Z,100749.69
2022-11-09T21:19:26.699Z,100760.19
2022-11-09T21:22:11.849Z,100762.75
2022-11-09T21:25:15.701Z,100766.91
2022-11-09T21:28:19.872Z,100761.88
2022-11-09T21:31:05.480Z,100767.84
2022-11-09T21:33:53.106Z,100765.13
2022-11-09T21:36:38.115Z,100774.81
2022-11-09T21:39:23.816Z,100769.50
2022-11-09T21:42:13.671Z,100781.78
2022-11-09T21:44:59.690Z,100780.78
2022-11-09T21:47:44.679Z,100788.53
2022-11-09T21:50:30.414Z,100793.72
2022-11-09T21:53:26.980Z,100784.25
2022-11-09T21:56:17.337Z,100792.03
2022-11-09T21:59:11.114Z,100794.69
2022-11-09T22:02:02.612Z,100798.06
2022-11-09T22:04:58.226Z,100799.91
2022-11-09T22:07:44.329Z,100786.50
2022-11-09T22:10:29.503Z,100809.38
2022-11-09T22:13:33.893Z,100814.69
2022-11-09T22:16:20.714Z,100814.53
2022-11-09T22:19:24.497Z,100808.41
2022-11-09T22:22:09.851Z,100811.09
2022-11-09T22:24:55.045Z,100812.69
2022-11-09T22:27:40.340Z,100815.34
2022-11-09T22:30:26.302Z,100821.47
2022-11-09T22:33:11.359Z,100818.84
2022-11-09T22:35:58.262Z,100818.72
2022-11-09T22:38:43.894Z,100827.34
2022-11-09T22:41:28.951Z,100838.66
2022-11-09T22:44:14.541Z,100836.00
2022-11-09T22:46:59.871Z,100838.56
2022-11-09T22:49:45.207Z,100854.97
2022-11-09T22:52:30.491Z,100845.53
2022-11-09T22:55:15.748Z,100856.84
2022-11-09T22:58:01.269Z,100863.13
2022-11-09T23:00:46.565Z,100863.94
2022-11-09T23:03:31.856Z,100876.06
2022-11-09T23:06:20.033Z,100875.28
2022-11-09T23:09:05.117Z,100878.50
2022-11-09T23:11:50.524Z,100881.06
2022-11-09T23:14:54.276Z,100889.81
2022-11-09T23:17:57.979Z,100891.50
2022-11-09T23:20:43.554Z,100897.63
2022-11-09T23:23:28.529Z,100888.22
2022-11-09T23:26:13.823Z,100907.94
2022-11-09T23:28:59.648Z,100900.28
2022-11-09T23:31:44.907Z,100897.63
2022-11-09T23:34:30.182Z,100899.31
2022-11-09T23:37:15.466Z,100909.66
2022-11-09T23:40:00.968Z,100912.22
2022-11-09T23:42:45.998Z,100919.84
2022-11-09T23:45:33.815Z,100922.53
2022-11-09T23:48:19.419Z,100927.66
2022-11-09T23:51:05.873Z,100938.16
2022-11-09T23:53:50.908Z,100948.41
2022-11-09T23:56:36.322Z,100945.88
2022-11-09T23:59:22.905Z,100948.34
